Time;durP1;ratioP1;P1;durP2;ratioP2;P2;SDS_P1;SDS_P2;PMS_P1;PMS_P2;Temp;Humidity;BMP_temperature;BMP_pressure;BME280_temperature;BME280_humidity;BME280_pressure;Samples;Min_cycle;Max_cycle;Signal;HPM_P1;HPM_P2
2023/05/03 00:01:54;;;;;;;;;;;19.00;88.10;;;;;;5115811;28;19915;-62
2023/05/03 00:04:22;;;;;;;;;;;19.00;88.10;;;;;;5115854;28;19919;-62
2023/05/03 00:06:47;;;;;;;;;;;19.00;88.10;;;;;;5115626;28;19912;-61
2023/05/03 00:09:13;;;;;;;;;;;19.00;88.10;;;;;;5114529;27;20319;-63
2023/05/03 00:11:38;;;;;;;;;;;19.00;88.10;;;;;;5115531;28;19907;-62
2023/05/03 00:14:04;;;;;;;;;;;19.00;88.10;;;;;;5115205;28;19915;-62
2023/05/03 00:16:29;;;;;;;;;;;19.00;88.10;;;;;;5115142;28;19981;-62
2023/05/03 00:18:55;;;;;;;;;;;19.00;88.10;;;;;;5115334;27;19931;-62
2023/05/03 00:21:20;;;;;;;;;;;19.00;88.10;;;;;;5115368;28;19951;-62
2023/05/03 00:23:46;;;;;;;;;;;18.90;88.00;;;;;;5115259;28;19915;-62
2023/05/03 00:26:11;;;;;;;;;;;18.90;88.30;;;;;;5115625;28;20411;-62
2023/05/03 00:28:36;;;;;;;;;;;19.00;88.10;;;;;;5114028;27;19916;-62
2023/05/03 00:31:06;;;;;;;;;;;19.00;88.10;;;;;;5114968;28;19945;-62
2023/05/03 00:33:31;;;;;;;;;;;19.00;88.10;;;;;;5113995;28;19964;-62
2023/05/03 00:35:57;;;;;;;;;;;19.00;88.00;;;;;;5115099;28;19911;-62
2023/05/03 00:38:22;;;;;;;;;;;19.00;88.50;;;;;;5114095;28;19911;-62
2023/05/03 00:40:54;;;;;;;;;;;19.00;88.00;;;;;;5114910;28;19912;-62
2023/05/03 00:43:20;;;;;;;;;;;19.00;87.90;;;;;;5115070;28;19949;-62
2023/05/03 00:45:46;;;;;;;;;;;19.10;88.00;;;;;;5114933;28;19915;-62
2023/05/03 00:48:11;;;;;;;;;;;19.00;87.90;;;;;;5114327;28;19911;-62
2023/05/03 00:50:37;;;;;;;;;;;19.00;87.90;;;;;;5115235;28;20006;-62
2023/05/03 00:53:03;;;;;;;;;;;19.00;87.90;;;;;;5114948;28;20411;-62
2023/05/03 00:55:32;;;;;;;;;;;19.00;87.80;;;;;;5114839;28;20007;-62
2023/05/03 00:57:57;;;;;;;;;;;19.00;87.80;;;;;;5113872;27;19918;-62
2023/05/03 01:00:23;;;;;;;;;;;19.00;87.80;;;;;;5114794;28;19908;-62
2023/05/03 01:02:49;;;;;;;;;;;19.00;87.80;;;;;;5114486;28;19915;-62
2023/05/03 01:05:15;;;;;;;;;;;19.00;87.90;;;;;;5114596;28;19916;-63
2023/05/03 01:08:04;;;;;;;;;;;19.00;87.80;;;;;;5114670;28;19914;-62
2023/05/03 01:10:36;;;;;;;;;;;19.00;87.80;;;;;;5094781;28;19912;-62
2023/05/03 01:13:20;;;;;;;;;;;19.00;87.80;;;;;;5094327;28;19909;-62
2023/05/03 01:16:06;;;;;;;;;;;19.00;87.90;;;;;;5092967;28;19915;-62
2023/05/03 01:18:36;;;;;;;;;;;19.00;87.90;;;;;;5095164;28;19908;-62
2023/05/03 01:21:04;;;;;;;;;;;19.00;87.90;;;;;;5113242;28;20345;-62
2023/05/03 01:23:38;;;;;;;;;;;19.00;87.90;;;;;;5114529;28;20269;-62
2023/05/03 01:26:14;;;;;;;;;;;19.00;87.90;;;;;;5114329;28;19916;-61
2023/05/03 01:28:40;;;;;;;;;;;19.00;87.90;;;;;;5112893;28;20002;-62
2023/05/03 01:31:05;;;;;;;;;;;19.00;87.90;;;;;;5114545;28;19985;-61
2023/05/03 01:33:35;;;;;;;;;;;19.00;87.90;;;;;;5114469;28;20326;-62
2023/05/03 01:36:03;;;;;;;;;;;19.00;87.90;;;;;;5114101;28;19912;-62
2023/05/03 01:38:35;;;;;;;;;;;19.00;87.80;;;;;;5113579;28;19947;-62
2023/05/03 01:41:01;;;;;;;;;;;19.00;87.90;;;;;;5114397;28;19946;-62
2023/05/03 01:43:30;;;;;;;;;;;19.00;87.80;;;;;;5113666;28;19927;-61
2023/05/03 01:45:55;;;;;;;;;;;19.00;87.80;;;;;;5093893;28;19943;-62
2023/05/03 01:48:21;;;;;;;;;;;19.00;87.70;;;;;;5093670;28;19908;-62
2023/05/03 01:50:46;;;;;;;;;;;19.00;87.70;;;;;;5093948;28;19908;-62
2023/05/03 01:53:12;;;;;;;;;;;19.00;87.70;;;;;;5093900;28;19948;-62
2023/05/03 01:55:37;;;;;;;;;;;19.00;87.70;;;;;;5112770;28;20010;-62
2023/05/03 01:58:03;;;;;;;;;;;19.00;87.70;;;;;;5117961;28;20397;-62
2023/05/03 02:00:28;;;;;;;;;;;19.00;87.70;;;;;;5116777;27;19950;-62
2023/05/03 02:02:54;;;;;;;;;;;19.00;87.70;;;;;;5117121;27;19919;-62
2023/05/03 02:05:19;;;;;;;;;;;19.00;87.70;;;;;;5117757;28;19915;-62
2023/05/03 02:07:45;;;;;;;;;;;19.00;87.70;;;;;;5118349;28;19908;-62
2023/05/03 02:10:13;;;;;;;;;;;19.00;88.20;;;;;;5117696;28;19908;-62
2023/05/03 02:12:40;;;;;;;;;;;19.00;87.80;;;;;;5117055;28;19968;-62
2023/05/03 02:15:06;;;;;;;;;;;19.00;87.80;;;;;;5117652;28;20007;-61
2023/05/03 02:17:31;;;;;;;;;;;19.00;87.80;;;;;;5117685;27;19907;-63
2023/05/03 02:19:57;;;;;;;;;;;19.00;87.80;;;;;;5117501;27;19968;-62
2023/05/03 02:22:22;;;;;;;;;;;19.00;87.80;;;;;;5116721;27;19907;-62
2023/05/03 02:24:48;;;;;;;;;;;19.00;87.80;;;;;;5117565;28;19964;-62
2023/05/03 02:27:14;;;;;;;;;;;19.00;87.80;;;;;;5117671;28;19908;-62
2023/05/03 02:29:40;;;;;;;;;;;19.00;87.80;;;;;;5116311;28;19908;-62
2023/05/03 02:32:05;;;;;;;;;;;19.00;87.80;;;;;;5116361;27;19990;-60
2023/05/03 02:34:31;;;;;;;;;;;19.00;88.30;;;;;;5116865;28;19916;-62
2023/05/03 02:36:57;;;;;;;;;;;19.00;87.70;;;;;;5117418;28;19955;-62
2023/05/03 02:39:22;;;;;;;;;;;19.00;87.80;;;;;;5117363;28;19930;-62
2023/05/03 02:41:48;;;;;;;;;;;19.00;87.70;;;;;;5116801;27;19908;-62
2023/05/03 02:44:13;;;;;;;;;;;19.00;87.70;;;;;;5114182;27;20381;-61
2023/05/03 02:46:40;;;;;;;;;;;19.00;87.70;;;;;;5116594;27;20358;-61
2023/05/03 02:49:06;;;;;;;;;;;19.00;87.70;;;;;;5116226;28;19911;-62
2023/05/03 02:51:32;;;;;;;;;;;19.00;87.70;;;;;;5117185;28;19915;-62
2023/05/03 02:53:57;;;;;;;;;;;19.00;87.60;;;;;;5115022;28;19923;-62
2023/05/03 02:56:25;;;;;;;;;;;19.00;87.70;;;;;;5117110;28;19908;-62
2023/05/03 02:58:51;;;;;;;;;;;19.00;87.70;;;;;;5116786;28;19967;-62
2023/05/03 03:01:16;;;;;;;;;;;19.00;87.70;;;;;;5116725;28;19908;-62
2023/05/03 03:03:42;;;;;;;;;;;19.00;87.70;;;;;;5115918;27;19919;-62
2023/05/03 03:06:07;;;;;;;;;;;19.00;87.80;;;;;;5114607;27;20384;-61
2023/05/03 03:08:33;;;;;;;;;;;19.00;87.80;;;;;;5116106;27;20374;-62
2023/05/03 03:10:58;;;;;;;;;;;19.00;87.70;;;;;;5116790;28;19955;-62
2023/05/03 03:13:23;;;;;;;;;;;19.00;87.80;;;;;;5115476;28;19912;-62
2023/05/03 03:15:49;;;;;;;;;;;19.00;87.80;;;;;;5116381;28;19961;-62
2023/05/03 03:18:14;;;;;;;;;;;19.00;87.70;;;;;;5116594;28;19969;-63
2023/05/03 03:20:40;;;;;;;;;;;19.00;87.70;;;;;;5115989;28;19918;-61
2023/05/03 03:23:06;;;;;;;;;;;18.90;87.70;;;;;;5115685;28;19918;-62
2023/05/03 03:25:31;;;;;;;;;;;18.90;87.70;;;;;;5116220;28;19916;-62
2023/05/03 03:27:56;;;;;;;;;;;19.00;87.70;;;;;;5116400;28;19918;-62
2023/05/03 03:30:22;;;;;;;;;;;18.90;87.60;;;;;;5116445;28;19907;-62
2023/05/03 03:32:47;;;;;;;;;;;19.00;87.70;;;;;;5113932;27;19965;-62
2023/05/03 03:35:14;;;;;;;;;;;19.00;87.70;;;;;;5116206;28;19915;-62
2023/05/03 03:37:39;;;;;;;;;;;19.00;87.60;;;;;;5116250;28;19930;-61
2023/05/03 03:40:06;;;;;;;;;;;19.00;87.60;;;;;;5116232;28;20354;-62
2023/05/03 03:42:31;;;;;;;;;;;19.00;87.60;;;;;;5114914;28;19911;-61
2023/05/03 03:44:57;;;;;;;;;;;19.00;87.60;;;;;;5115968;28;19919;-63
2023/05/03 03:47:22;;;;;;;;;;;19.00;87.60;;;;;;5116044;28;19908;-62
2023/05/03 03:49:48;;;;;;;;;;;19.00;87.60;;;;;;5115546;28;19908;-62
2023/05/03 03:52:13;;;;;;;;;;;19.00;87.60;;;;;;5115375;28;19911;-61
2023/05/03 03:54:39;;;;;;;;;;;19.00;87.60;;;;;;5115842;28;19953;-61
2023/05/03 03:57:04;;;;;;;;;;;19.00;87.60;;;;;;5115609;28;20374;-62
2023/05/03 03:59:30;;;;;;;;;;;19.00;87.60;;;;;;5116124;28;20268;-62
2023/05/03 04:01:55;;;;;;;;;;;19.00;87.60;;;;;;5115704;28;19908;-62
2023/05/03 04:04:21;;;;;;;;;;;19.00;87.70;;;;;;5114557;27;19975;-62
2023/05/03 04:06:46;;;;;;;;;;;18.90;87.60;;;;;;5115301;28;19915;-62
2023/05/03 04:09:12;;;;;;;;;;;19.00;87.70;;;;;;5115714;28;19915;-61
2023/05/03 04:11:38;;;;;;;;;;;18.90;87.70;;;;;;5115377;28;20412;-62
2023/05/03 04:14:04;;;;;;;;;;;18.90;87.60;;;;;;5114183;28;20264;-62
2023/05/03 04:16:29;;;;;;;;;;;18.90;87.60;;;;;;5115402;28;19908;-62
2023/05/03 04:18:55;;;;;;;;;;;18.90;87.60;;;;;;5115104;28;19908;-62
2023/05/03 04:21:20;;;;;;;;;;;19.00;87.70;;;;;;5114090;28;19918;-62
2023/05/03 04:23:46;;;;;;;;;;;18.90;87.60;;;;;;5114950;28;20366;-62
2023/05/03 04:26:11;;;;;;;;;;;18.90;87.60;;;;;;5114898;28;19915;-62
2023/05/03 04:28:37;;;;;;;;;;;18.90;87.60;;;;;;5115144;28;20022;-62
2023/05/03 04:31:03;;;;;;;;;;;18.90;87.60;;;;;;5114564;28;20290;-62
2023/05/03 04:33:30;;;;;;;;;;;18.90;87.60;;;;;;5113722;28;19912;-62
2023/05/03 04:35:56;;;;;;;;;;;18.90;87.60;;;;;;5114765;28;19947;-62
2023/05/03 04:38:22;;;;;;;;;;;18.90;87.60;;;;;;5114797;28;19947;-62
2023/05/03 04:40:47;;;;;;;;;;;18.90;87.60;;;;;;5114773;28;20018;-62
2023/05/03 04:43:13;;;;;;;;;;;18.90;87.60;;;;;;5114007;28;20382;-61
2023/05/03 04:45:38;;;;;;;;;;;18.90;87.60;;;;;;5114528;28;19916;-61
2023/05/03 04:48:04;;;;;;;;;;;18.90;87.60;;;;;;5114982;28;20290;-62
2023/05/03 04:50:30;;;;;;;;;;;18.90;87.60;;;;;;5115074;28;19908;-62
2023/05/03 04:52:55;;;;;;;;;;;18.90;87.60;;;;;;5113965;28;20323;-62
2023/05/03 04:55:21;;;;;;;;;;;18.90;87.60;;;;;;5114682;28;19912;-62
2023/05/03 04:57:46;;;;;;;;;;;19.00;87.70;;;;;;5114651;28;19908;-62
2023/05/03 05:00:12;;;;;;;;;;;18.90;87.60;;;;;;5114351;28;19914;-62
2023/05/03 05:02:38;;;;;;;;;;;18.90;87.60;;;;;;5113485;28;20370;-62
2023/05/03 05:05:03;;;;;;;;;;;19.00;87.60;;;;;;5114618;28;19916;-62
2023/05/03 05:07:29;;;;;;;;;;;19.00;87.60;;;;;;5114462;28;19915;-62
2023/05/03 05:09:54;;;;;;;;;;;19.00;87.60;;;;;;5114041;28;19988;-62
2023/05/03 05:12:20;;;;;;;;;;;19.00;87.60;;;;;;5112688;28;19908;-61
2023/05/03 05:14:45;;;;;;;;;;;19.00;87.50;;;;;;5113796;28;19912;-61
2023/05/03 05:17:11;;;;;;;;;;;19.00;87.50;;;;;;5114257;28;19931;-61
2023/05/03 05:19:36;;;;;;;;;;;19.00;87.50;;;;;;5114079;28;19915;-62
2023/05/03 05:22:02;;;;;;;;;;;19.00;87.50;;;;;;5113595;28;19911;-62
2023/05/03 05:24:27;;;;;;;;;;;19.00;87.50;;;;;;5113792;28;19927;-62
2023/05/03 05:26:53;;;;;;;;;;;19.00;87.50;;;;;;5114575;28;20041;-62
2023/05/03 05:29:18;;;;;;;;;;;19.00;87.50;;;;;;5115193;28;19912;-61
2023/05/03 05:31:44;;;;;;;;;;;19.00;87.50;;;;;;5117513;28;19911;-62
2023/05/03 05:34:09;;;;;;;;;;;19.00;87.50;;;;;;5116847;27;19916;-61
2023/05/03 05:36:35;;;;;;;;;;;18.90;87.40;;;;;;5115769;27;20041;-62
2023/05/03 05:39:00;;;;;;;;;;;18.90;87.40;;;;;;5116901;27;19911;-62
2023/05/03 05:41:26;;;;;;;;;;;18.90;87.40;;;;;;5119280;27;19990;-62
2023/05/03 05:43:52;;;;;;;;;;;18.90;87.40;;;;;;5117554;28;19927;-62
2023/05/03 05:46:19;;;;;;;;;;;18.90;87.40;;;;;;5117878;28;19931;-62
2023/05/03 05:48:45;;;;;;;;;;;18.90;87.40;;;;;;5118209;28;19964;-62
2023/05/03 05:51:10;;;;;;;;;;;18.90;87.40;;;;;;5116134;27;19912;-62
2023/05/03 05:53:36;;;;;;;;;;;18.90;87.50;;;;;;5116137;28;20006;-63
2023/05/03 05:56:01;;;;;;;;;;;18.90;87.40;;;;;;5117484;28;19946;-62
2023/05/03 05:58:27;;;;;;;;;;;18.90;87.40;;;;;;5115765;27;19976;-62
2023/05/03 06:00:56;;;;;;;;;;;18.90;87.50;;;;;;5116608;28;20018;-62
2023/05/03 06:03:21;;;;;;;;;;;18.90;87.50;;;;;;5118023;28;20002;-62
2023/05/03 06:05:48;;;;;;;;;;;19.00;87.50;;;;;;5117748;28;20015;-62
2023/05/03 06:08:13;;;;;;;;;;;19.00;87.50;;;;;;5119598;27;19915;-62
2023/05/03 06:10:39;;;;;;;;;;;19.00;87.50;;;;;;5102341;27;20237;-62
2023/05/03 06:13:04;;;;;;;;;;;19.00;87.40;;;;;;5122463;27;19912;-62
2023/05/03 06:15:30;;;;;;;;;;;19.00;87.40;;;;;;5117454;27;20373;-62
2023/05/03 06:17:56;;;;;;;;;;;19.00;87.40;;;;;;5116297;27;20333;-60
2023/05/03 06:20:23;;;;;;;;;;;19.00;87.30;;;;;;5115749;28;19915;-62
2023/05/03 06:22:48;;;;;;;;;;;19.00;87.30;;;;;;5120659;27;20014;-62
2023/05/03 06:25:14;;;;;;;;;;;19.00;87.30;;;;;;5117133;28;19951;-63
2023/05/03 06:27:39;;;;;;;;;;;19.00;87.30;;;;;;5117087;28;19976;-62
2023/05/03 06:30:05;;;;;;;;;;;19.00;87.30;;;;;;5117784;28;19916;-62
2023/05/03 06:32:30;;;;;;;;;;;19.00;87.30;;;;;;5116177;28;19908;-62
2023/05/03 06:34:58;;;;;;;;;;;19.00;87.30;;;;;;5118071;27;19915;-62
2023/05/03 06:37:24;;;;;;;;;;;19.00;87.30;;;;;;5117411;28;19908;-62
2023/05/03 06:39:49;;;;;;;;;;;19.00;87.40;;;;;;5115862;28;19980;-62
2023/05/03 06:42:15;;;;;;;;;;;19.00;87.40;;;;;;5117438;28;19990;-62
2023/05/03 06:44:41;;;;;;;;;;;18.90;87.30;;;;;;5116637;27;19959;-62
2023/05/03 06:47:06;;;;;;;;;;;18.90;87.40;;;;;;5117475;28;20443;-62
2023/05/03 06:49:32;;;;;;;;;;;18.90;87.40;;;;;;5115595;28;19943;-62
2023/05/03 06:51:58;;;;;;;;;;;18.90;87.40;;;;;;5116934;28;20294;-63
2023/05/03 06:54:23;;;;;;;;;;;18.90;87.40;;;;;;5116060;28;19912;-62
2023/05/03 06:56:48;;;;;;;;;;;18.90;87.40;;;;;;5116606;28;20370;-62
2023/05/03 06:59:15;;;;;;;;;;;18.90;87.40;;;;;;5117209;28;19915;-62
2023/05/03 07:01:40;;;;;;;;;;;18.90;87.40;;;;;;5116722;28;19907;-62
2023/05/03 07:04:06;;;;;;;;;;;18.90;87.50;;;;;;5114540;28;19938;-63
2023/05/03 07:06:31;;;;;;;;;;;18.90;87.50;;;;;;5116287;28;20404;-62
2023/05/03 07:08:57;;;;;;;;;;;18.90;87.50;;;;;;5116521;28;19916;-62
2023/05/03 07:11:22;;;;;;;;;;;18.90;87.50;;;;;;5116349;28;19912;-62
2023/05/03 07:13:51;;;;;;;;;;;18.90;87.50;;;;;;5116506;28;19972;-60
2023/05/03 07:16:17;;;;;;;;;;;18.90;87.50;;;;;;5115440;28;20262;-62
2023/05/03 07:18:43;;;;;;;;;;;18.90;87.40;;;;;;5116576;27;19912;-63
2023/05/03 07:21:08;;;;;;;;;;;18.90;87.40;;;;;;5116216;28;20446;-62
2023/05/03 07:23:34;;;;;;;;;;;18.90;87.40;;;;;;5116144;28;19960;-63
2023/05/03 07:26:00;;;;;;;;;;;19.00;87.40;;;;;;5115217;28;19927;-62
2023/05/03 07:28:25;;;;;;;;;;;19.00;87.30;;;;;;5115054;28;19912;-62
2023/05/03 07:30:51;;;;;;;;;;;19.00;87.30;;;;;;5116283;28;20373;-61
2023/05/03 07:33:16;;;;;;;;;;;19.00;87.30;;;;;;5115892;28;19990;-62
2023/05/03 07:35:44;;;;;;;;;;;19.00;87.30;;;;;;5115357;28;19953;-62
2023/05/03 07:38:09;;;;;;;;;;;19.00;87.30;;;;;;5115765;28;19934;-62
2023/05/03 07:40:35;;;;;;;;;;;19.00;87.30;;;;;;5115766;28;20354;-62
2023/05/03 07:43:01;;;;;;;;;;;19.00;87.30;;;;;;5114547;28;19972;-62
2023/05/03 07:45:27;;;;;;;;;;;19.00;87.30;;;;;;5114492;28;19967;-62
2023/05/03 07:47:53;;;;;;;;;;;19.00;87.40;;;;;;5115618;28;19908;-62
2023/05/03 07:50:18;;;;;;;;;;;19.00;87.40;;;;;;5115552;28;19908;-62
2023/05/03 07:52:44;;;;;;;;;;;18.90;87.40;;;;;;5114891;28;19908;-61
2023/05/03 07:55:09;;;;;;;;;;;19.00;87.40;;;;;;5115823;28;19908;-63
2023/05/03 07:57:35;;;;;;;;;;;18.90;87.40;;;;;;5114741;28;20363;-62
2023/05/03 08:00:01;;;;;;;;;;;19.00;87.50;;;;;;5115384;28;19908;-62
2023/05/03 08:02:27;;;;;;;;;;;19.00;87.50;;;;;;5114238;28;19928;-62
2023/05/03 08:04:53;;;;;;;;;;;18.90;87.40;;;;;;5115591;28;19923;-62
2023/05/03 08:07:19;;;;;;;;;;;18.90;87.40;;;;;;5114342;27;20377;-62
2023/05/03 08:09:44;;;;;;;;;;;18.90;87.50;;;;;;5115420;27;19908;-62
2023/05/03 08:12:10;;;;;;;;;;;18.90;87.50;;;;;;5115478;28;19908;-62
2023/05/03 08:14:36;;;;;;;;;;;18.90;87.50;;;;;;5114556;28;20319;-62
2023/05/03 08:17:03;;;;;;;;;;;18.90;87.50;;;;;;5115030;28;19908;-62
2023/05/03 08:19:29;;;;;;;;;;;18.90;87.50;;;;;;5115457;27;19908;-63
2023/05/03 08:21:54;;;;;;;;;;;18.90;87.50;;;;;;5115310;28;19953;-62
2023/05/03 08:24:20;;;;;;;;;;;18.90;87.50;;;;;;5113733;28;19924;-62
2023/05/03 08:26:47;;;;;;;;;;;18.90;87.50;;;;;;5113704;28;20433;-62
2023/05/03 08:29:15;;;;;;;;;;;18.90;87.50;;;;;;5115487;28;19931;-62
2023/05/03 08:31:40;;;;;;;;;;;18.90;87.50;;;;;;5115214;28;19908;-62
2023/05/03 08:34:09;;;;;;;;;;;18.90;87.60;;;;;;5114779;28;19911;-62
2023/05/03 08:36:34;;;;;;;;;;;18.90;87.50;;;;;;5114219;28;19918;-62
2023/05/03 08:39:01;;;;;;;;;;;18.90;87.50;;;;;;5114674;28;19994;-62
2023/05/03 08:41:30;;;;;;;;;;;18.90;87.50;;;;;;5113629;28;19907;-62
2023/05/03 08:43:56;;;;;;;;;;;19.00;87.50;;;;;;5114181;28;20269;-62
2023/05/03 08:46:22;;;;;;;;;;;19.00;87.50;;;;;;5114524;28;19918;-62
2023/05/03 08:48:48;;;;;;;;;;;19.00;87.40;;;;;;5114741;28;19912;-62
2023/05/03 08:51:15;;;;;;;;;;;19.00;87.40;;;;;;5114419;28;19915;-62
2023/05/03 08:53:41;;;;;;;;;;;19.10;87.40;;;;;;5113381;28;19912;-62
2023/05/03 08:56:07;;;;;;;;;;;19.00;87.30;;;;;;5114200;28;19915;-63
2023/05/03 08:58:34;;;;;;;;;;;19.10;87.40;;;;;;5113081;28;20358;-62
2023/05/03 09:01:06;;;;;;;;;;;19.10;87.40;;;;;;5114305;28;19943;-61
2023/05/03 09:03:35;;;;;;;;;;;19.00;87.30;;;;;;5113935;28;19908;-62
2023/05/03 09:06:01;;;;;;;;;;;19.10;87.40;;;;;;5113558;28;19968;-62
2023/05/03 09:08:28;;;;;;;;;;;19.10;87.40;;;;;;5114817;28;19912;-62
2023/05/03 09:10:54;;;;;;;;;;;19.00;87.30;;;;;;5114152;28;20384;-62
2023/05/03 09:13:19;;;;;;;;;;;19.00;87.80;;;;;;5113969;28;19939;-61
2023/05/03 09:15:56;;;;;;;;;;;19.00;87.30;;;;;;5114527;28;19947;-62
2023/05/03 09:18:22;;;;;;;;;;;19.00;87.40;;;;;;5114365;28;19908;-62
2023/05/03 09:20:51;;;;;;;;;;;19.00;87.40;;;;;;5113950;28;19912;-62
2023/05/03 09:23:18;;;;;;;;;;;19.00;87.40;;;;;;5114058;28;20424;-62
2023/05/03 09:25:45;;;;;;;;;;;19.00;87.40;;;;;;5112111;28;19916;-59
2023/05/03 09:28:11;;;;;;;;;;;19.00;87.40;;;;;;5112996;28;20006;-61
2023/05/03 09:30:37;;;;;;;;;;;19.00;87.50;;;;;;5113954;28;19936;-62
2023/05/03 09:33:03;;;;;;;;;;;19.00;87.50;;;;;;5114229;28;19973;-61
2023/05/03 09:35:29;;;;;;;;;;;19.00;87.50;;;;;;5113425;28;19930;-61
2023/05/03 09:37:54;;;;;;;;;;;19.00;87.50;;;;;;5114168;28;19990;-61
2023/05/03 09:40:20;;;;;;;;;;;19.00;87.50;;;;;;5113935;28;19994;-61
2023/05/03 09:43:08;;;;;;;;;;;19.00;87.60;;;;;;5113742;28;20339;-61
2023/05/03 09:45:34;;;;;;;;;;;19.00;87.50;;;;;;5111949;28;19973;-61
2023/05/03 09:48:03;;;;;;;;;;;19.00;87.60;;;;;;5113999;28;19916;-61
2023/05/03 09:50:32;;;;;;;;;;;19.00;87.60;;;;;;5113900;28;19907;-62
2023/05/03 09:53:00;;;;;;;;;;;19.00;87.50;;;;;;5113955;28;20270;-61
2023/05/03 09:55:26;;;;;;;;;;;19.00;87.50;;;;;;5111956;28;19955;-61
2023/05/03 09:57:53;;;;;;;;;;;19.00;87.50;;;;;;5113802;28;19961;-61
2023/05/03 10:00:19;;;;;;;;;;;19.10;87.50;;;;;;5113919;28;19908;-61
2023/05/03 10:02:46;;;;;;;;;;;19.10;87.40;;;;;;5114013;28;19908;-61
2023/05/03 10:05:12;;;;;;;;;;;19.10;87.40;;;;;;5112861;28;19919;-61
2023/05/03 10:07:39;;;;;;;;;;;19.10;87.40;;;;;;5113501;28;20024;-62
2023/05/03 10:10:06;;;;;;;;;;;19.10;87.40;;;;;;5113335;28;19915;-62
2023/05/03 10:12:34;;;;;;;;;;;19.10;87.40;;;;;;5113773;28;19953;-61
2023/05/03 10:15:00;;;;;;;;;;;19.10;87.40;;;;;;5112001;28;19919;-62
2023/05/03 10:17:29;;;;;;;;;;;19.10;87.40;;;;;;5117300;28;19908;-62
2023/05/03 10:19:59;;;;;;;;;;;19.10;87.40;;;;;;5115969;28;19957;-62
2023/05/03 10:22:25;;;;;;;;;;;19.10;87.40;;;;;;5117514;28;19915;-62
2023/05/03 10:25:00;;;;;;;;;;;19.00;87.40;;;;;;5116705;28;20323;-62
2023/05/03 10:27:44;;;;;;;;;;;19.00;87.40;;;;;;5117089;28;19912;-62
2023/05/03 10:30:27;;;;;;;;;;;19.00;87.40;;;;;;5117110;28;19908;-62
2023/05/03 10:32:52;;;;;;;;;;;19.00;87.40;;;;;;5117433;28;19907;-62
2023/05/03 10:35:18;;;;;;;;;;;19.00;87.50;;;;;;5116125;27;20373;-62
2023/05/03 10:37:47;;;;;;;;;;;19.00;87.50;;;;;;5116520;28;19971;-62
2023/05/03 10:40:16;;;;;;;;;;;19.00;87.50;;;;;;5117282;28;19953;-62
2023/05/03 10:42:43;;;;;;;;;;;19.00;87.50;;;;;;5117114;28;19965;-62
2023/05/03 10:45:10;;;;;;;;;;;19.00;87.50;;;;;;5116461;28;19931;-62
2023/05/03 10:47:36;;;;;;;;;;;19.00;87.50;;;;;;5116768;28;20282;-62
2023/05/03 10:50:10;;;;;;;;;;;19.00;87.50;;;;;;5117231;28;19907;-62
2023/05/03 10:52:38;;;;;;;;;;;19.00;87.50;;;;;;5116673;28;19912;-62
2023/05/03 10:55:30;;;;;;;;;;;19.00;87.60;;;;;;5116162;27;19958;-62
2023/05/03 10:57:57;;;;;;;;;;;19.00;87.60;;;;;;5114712;27;19988;-62
2023/05/03 11:00:26;;;;;;;;;;;19.00;87.60;;;;;;5116884;28;19907;-61
2023/05/03 11:02:55;;;;;;;;;;;19.00;87.60;;;;;;5115521;28;19907;-62
2023/05/03 11:05:22;;;;;;;;;;;19.00;87.60;;;;;;5115788;28;19915;-61
2023/05/03 11:07:48;;;;;;;;;;;19.00;87.60;;;;;;5114877;28;19920;-61
2023/05/03 11:10:17;;;;;;;;;;;19.00;87.60;;;;;;5116709;28;20358;-62
2023/05/03 11:12:42;;;;;;;;;;;19.00;87.60;;;;;;5116330;28;19965;-62
2023/05/03 11:15:10;;;;;;;;;;;19.00;87.50;;;;;;5116195;28;19912;-62
2023/05/03 11:17:37;;;;;;;;;;;19.00;87.50;;;;;;5113405;27;19911;-62
2023/05/03 11:20:07;;;;;;;;;;;19.10;87.50;;;;;;5116366;28;20338;-62
2023/05/03 11:22:33;;;;;;;;;;;19.10;87.40;;;;;;5116288;28;19912;-62
2023/05/03 11:24:58;;;;;;;;;;;19.10;87.40;;;;;;5115914;28;19918;-61
2023/05/03 11:27:25;;;;;;;;;;;19.10;87.40;;;;;;5114391;27;19998;-61
2023/05/03 11:29:51;;;;;;;;;;;19.10;87.40;;;;;;5114813;28;19914;-62
2023/05/03 11:32:17;;;;;;;;;;;19.10;87.40;;;;;;5115926;28;20354;-61
2023/05/03 11:34:43;;;;;;;;;;;19.10;87.40;;;;;;5115673;27;19915;-61
2023/05/03 11:37:09;;;;;;;;;;;19.10;87.40;;;;;;5115103;27;19919;-62
2023/05/03 11:39:35;;;;;;;;;;;19.10;87.40;;;;;;5115969;28;19930;-62
2023/05/03 11:42:04;;;;;;;;;;;19.10;87.90;;;;;;5115580;28;19907;-63
2023/05/03 11:44:29;;;;;;;;;;;19.10;87.40;;;;;;5115803;28;19943;-62
2023/05/03 11:46:55;;;;;;;;;;;19.10;87.40;;;;;;5111689;28;20355;-62
2023/05/03 11:49:22;;;;;;;;;;;19.10;87.40;;;;;;5115294;27;19912;-62
2023/05/03 11:51:50;;;;;;;;;;;19.10;87.40;;;;;;5115639;28;20007;-62
2023/05/03 11:54:15;;;;;;;;;;;19.10;87.40;;;;;;5115540;28;20377;-62
2023/05/03 11:56:41;;;;;;;;;;;19.10;87.40;;;;;;5114027;28;19990;-61
2023/05/03 11:59:07;;;;;;;;;;;19.00;87.40;;;;;;5115618;27;19908;-62
2023/05/03 12:01:32;;;;;;;;;;;19.00;87.40;;;;;;5115417;28;19908;-62
2023/05/03 12:03:59;;;;;;;;;;;19.00;87.40;;;;;;5115465;28;20018;-62
2023/05/03 12:06:27;;;;;;;;;;;19.00;87.40;;;;;;5115122;28;20385;-62
2023/05/03 12:08:53;;;;;;;;;;;19.00;87.40;;;;;;5114310;28;19912;-62
2023/05/03 12:11:19;;;;;;;;;;;19.00;87.50;;;;;;5115364;28;19926;-61
2023/05/03 12:13:45;;;;;;;;;;;19.00;87.40;;;;;;5115224;28;20006;-63
2023/05/03 12:16:13;;;;;;;;;;;19.00;87.40;;;;;;5114968;28;19970;-63
2023/05/03 12:18:45;;;;;;;;;;;19.00;87.40;;;;;;5113310;27;19911;-62
2023/05/03 12:21:11;;;;;;;;;;;19.00;87.50;;;;;;5115345;28;19908;-62
2023/05/03 12:23:36;;;;;;;;;;;19.10;87.50;;;;;;5115122;28;20051;-62
2023/05/03 12:26:02;;;;;;;;;;;19.00;87.40;;;;;;5114822;28;19923;-62
2023/05/03 12:28:28;;;;;;;;;;;19.10;87.40;;;;;;5114365;28;20406;-63
2023/05/03 12:30:53;;;;;;;;;;;19.10;87.40;;;;;;5114939;28;19991;-62
2023/05/03 12:33:20;;;;;;;;;;;19.10;87.40;;;;;;5114427;28;19943;-62
2023/05/03 12:35:45;;;;;;;;;;;19.10;87.40;;;;;;5114641;28;19992;-63
2023/05/03 12:38:11;;;;;;;;;;;19.10;87.40;;;;;;5113790;27;19994;-62
2023/05/03 12:40:37;;;;;;;;;;;19.10;87.40;;;;;;5113025;28;19918;-62
2023/05/03 12:43:03;;;;;;;;;;;19.10;87.40;;;;;;5114126;28;20356;-62
2023/05/03 12:45:30;;;;;;;;;;;19.10;87.30;;;;;;5114434;28;19923;-62
2023/05/03 12:47:56;;;;;;;;;;;19.10;87.30;;;;;;5114530;28;19912;-62
2023/05/03 12:50:22;;;;;;;;;;;19.10;87.40;;;;;;5113713;27;20344;-62
2023/05/03 12:52:47;;;;;;;;;;;19.10;87.30;;;;;;5114619;28;19912;-63
2023/05/03 12:55:12;;;;;;;;;;;19.00;87.30;;;;;;5113338;28;20406;-63
2023/05/03 12:57:38;;;;;;;;;;;19.10;87.40;;;;;;5114151;28;19908;-63
2023/05/03 13:00:05;;;;;;;;;;;19.10;87.30;;;;;;5114181;28;19912;-62
2023/05/03 13:02:30;;;;;;;;;;;19.10;87.30;;;;;;5114365;27;20359;-62
2023/05/03 13:04:56;;;;;;;;;;;19.10;87.30;;;;;;5114500;28;19915;-62
2023/05/03 13:07:23;;;;;;;;;;;19.00;87.30;;;;;;5113698;27;20381;-63
2023/05/03 13:09:49;;;;;;;;;;;19.10;87.40;;;;;;5114131;28;20278;-62
2023/05/03 13:12:16;;;;;;;;;;;19.10;87.40;;;;;;5113172;28;19908;-62
2023/05/03 13:14:42;;;;;;;;;;;19.00;87.30;;;;;;5114623;28;19955;-62
2023/05/03 13:17:07;;;;;;;;;;;19.10;87.40;;;;;;5113868;28;19919;-56
2023/05/03 13:19:33;;;;;;;;;;;19.00;87.30;;;;;;5113923;28;19908;-63
2023/05/03 13:21:58;;;;;;;;;;;19.10;87.40;;;;;;5114261;28;19953;-63
2023/05/03 13:24:24;;;;;;;;;;;19.10;87.40;;;;;;5114057;28;19916;-62
2023/05/03 13:26:50;;;;;;;;;;;19.10;87.30;;;;;;5113865;28;20269;-62
2023/05/03 13:29:15;;;;;;;;;;;19.10;87.30;;;;;;5113395;28;19916;-63
2023/05/03 13:31:41;;;;;;;;;;;19.10;87.30;;;;;;5113803;28;19930;-63
2023/05/03 13:34:06;;;;;;;;;;;19.10;87.30;;;;;;5113769;28;19999;-61
2023/05/03 13:36:32;;;;;;;;;;;19.10;87.20;;;;;;5113962;28;20369;-61
2023/05/03 13:38:58;;;;;;;;;;;19.10;87.20;;;;;;5112580;28;20011;-61
2023/05/03 13:41:23;;;;;;;;;;;19.10;87.20;;;;;;5113683;28;19991;-61
2023/05/03 13:43:49;;;;;;;;;;;19.10;87.20;;;;;;5113937;28;19919;-61
2023/05/03 13:46:14;;;;;;;;;;;19.10;87.20;;;;;;5112413;28;19916;-61
2023/05/03 13:48:40;;;;;;;;;;;19.10;87.20;;;;;;5113200;28;19942;-61
2023/05/03 13:51:09;;;;;;;;;;;19.10;87.20;;;;;;5115713;28;19911;-60
2023/05/03 13:53:35;;;;;;;;;;;19.10;87.20;;;;;;5117657;28;20277;-64
2023/05/03 13:56:01;;;;;;;;;;;19.10;87.20;;;;;;5116448;28;19908;-62
2023/05/03 13:58:26;;;;;;;;;;;19.10;87.20;;;;;;5117540;28;19908;-61
2023/05/03 14:00:52;;;;;;;;;;;19.10;87.20;;;;;;5116727;27;20358;-61
2023/05/03 14:03:17;;;;;;;;;;;19.10;87.20;;;;;;5116783;28;19916;-61
2023/05/03 14:05:43;;;;;;;;;;;19.10;87.20;;;;;;5117568;28;19961;-61
2023/05/03 14:08:08;;;;;;;;;;;19.10;87.20;;;;;;5116587;28;19912;-62
2023/05/03 14:10:34;;;;;;;;;;;19.10;87.20;;;;;;5117541;28;19918;-61
2023/05/03 14:13:00;;;;;;;;;;;19.10;87.20;;;;;;5117207;28;20294;-62